createdAt,value
2016-06-05T00:00:12.461Z,1008.77
2016-06-05T00:01:12.480Z,1008.77
2016-06-05T00:02:12.483Z,1008.78
2016-06-05T00:03:12.485Z,1008.81
2016-06-05T00:04:12.488Z,1008.79
2016-06-05T00:05:12.506Z,1008.82
2016-06-05T00:06:12.509Z,1008.82
2016-06-05T00:07:12.511Z,1008.85
2016-06-05T00:08:12.513Z,1008.82
2016-06-05T00:09:12.517Z,1008.86
2016-06-05T00:10:12.535Z,1008.88
2016-06-05T00:11:12.538Z,1008.9
2016-06-05T00:12:12.557Z,1008.86
2016-06-05T00:13:12.560Z,1008.91
2016-06-05T00:14:12.562Z,1008.84
2016-06-05T00:15:12.610Z,1008.81
2016-06-05T00:16:12.567Z,1008.83
2016-06-05T00:17:12.570Z,1008.85
2016-06-05T00:18:12.588Z,1008.82
2016-06-05T00:19:12.591Z,1008.81
2016-06-05T00:20:12.593Z,1008.81
2016-06-05T00:21:12.596Z,1008.8
2016-06-05T00:22:12.615Z,1008.83
2016-06-05T00:23:12.617Z,1008.79
2016-06-05T00:24:12.620Z,1008.82
2016-06-05T00:25:12.638Z,1008.82
2016-06-05T00:26:12.641Z,1008.85
2016-06-05T00:27:12.643Z,1008.84
2016-06-05T00:28:12.646Z,1008.85
2016-06-05T00:29:12.648Z,1008.82
2016-06-05T00:30:12.667Z,1008.86
2016-06-05T00:31:12.670Z,1008.85
2016-06-05T00:32:12.672Z,1008.91
2016-06-05T00:33:12.675Z,1008.89
2016-06-05T00:34:12.694Z,1008.88
2016-06-05T00:35:12.696Z,1008.89
2016-06-05T00:36:12.699Z,1008.89
2016-06-05T00:37:12.702Z,1008.92
2016-06-05T00:38:12.720Z,1008.89
2016-06-05T00:39:12.722Z,1008.91
2016-06-05T00:40:12.725Z,1008.9
2016-06-05T00:41:12.728Z,1008.9
2016-06-05T00:42:12.747Z,1008.86
2016-06-05T00:43:13.140Z,1008.89
2016-06-05T00:44:12.751Z,1008.91
2016-06-05T00:45:12.771Z,1008.88
2016-06-05T00:46:12.773Z,1008.85
2016-06-05T00:47:12.775Z,1008.89
2016-06-05T00:48:12.778Z,1008.86
2016-06-05T00:49:12.781Z,1008.89
2016-06-05T00:50:12.784Z,1008.85
2016-06-05T00:51:12.802Z,1008.9
2016-06-05T00:52:12.804Z,1008.92
2016-06-05T00:53:12.807Z,1008.91
2016-06-05T00:54:12.810Z,1008.95
2016-06-05T00:55:12.828Z,1008.91
2016-06-05T00:56:12.831Z,1008.92
2016-06-05T00:57:12.834Z,1008.92
2016-06-05T00:58:13.290Z,1008.87
2016-06-05T00:59:12.854Z,1008.89
2016-06-05T01:00:12.857Z,1008.89
2016-06-05T01:01:12.860Z,1008.92
2016-06-05T01:02:12.862Z,1008.88
2016-06-05T01:03:12.880Z,1008.94
2016-06-05T01:04:12.884Z,1008.91
2016-06-05T01:05:12.886Z,1008.9
2016-06-05T01:06:12.889Z,1008.89
2016-06-05T01:07:12.908Z,1008.93
2016-06-05T01:08:12.910Z,1008.89
2016-06-05T01:09:12.913Z,1008.88
2016-06-05T01:10:12.916Z,1008.92
2016-06-05T01:11:12.934Z,1008.89
2016-06-05T01:12:12.936Z,1008.92
2016-06-05T01:13:13.642Z,1008.91
2016-06-05T01:14:12.941Z,1008.9
2016-06-05T01:15:12.960Z,1008.88
2016-06-05T01:16:12.963Z,1008.87
2016-06-05T01:17:12.965Z,1008.91
2016-06-05T01:18:12.968Z,1008.92
2016-06-05T01:19:12.987Z,1008.96
2016-06-05T01:20:12.990Z,1008.94
2016-06-05T01:21:12.993Z,1008.96
2016-06-05T01:22:12.995Z,1008.98
2016-06-05T01:23:13.013Z,1008.95
2016-06-05T01:24:13.015Z,1008.93
2016-06-05T01:25:13.018Z,1008.98
2016-06-05T01:26:13.021Z,1008.99
2016-06-05T01:27:13.023Z,1008.94
2016-06-05T01:28:13.042Z,1008.96
2016-06-05T01:29:13.060Z,1008.97
2016-06-05T01:30:13.062Z,1008.92
2016-06-05T01:31:13.051Z,1008.94
2016-06-05T01:32:13.068Z,1009
2016-06-05T01:33:13.070Z,1009
2016-06-05T01:34:13.073Z,1009
2016-06-05T01:35:13.076Z,1009.02
2016-06-05T01:36:13.095Z,1009.01
2016-06-05T01:37:13.098Z,1008.99
2016-06-05T01:38:13.100Z,1009.03
2016-06-05T01:39:13.118Z,1009.05
2016-06-05T01:40:13.122Z,1009.06
2016-06-05T01:41:13.124Z,1009.1
2016-06-05T01:42:13.127Z,1009.08
2016-06-05T01:43:13.255Z,1009.07
2016-06-05T01:44:13.148Z,1009.06
2016-06-05T01:45:13.150Z,1009.03
2016-06-05T01:46:13.152Z,1009.07
2016-06-05T01:47:13.155Z,1009.04
2016-06-05T01:48:13.174Z,1009.06
2016-06-05T01:49:13.176Z,1009
2016-06-05T01:50:13.180Z,1009
2016-06-05T01:51:13.182Z,1009.01
2016-06-05T01:52:13.201Z,1009.03
2016-06-05T01:53:13.203Z,1009.03
2016-06-05T01:54:13.206Z,1009.1
2016-06-05T01:55:13.209Z,1009.06
2016-06-05T01:56:13.212Z,1009.11
2016-06-05T01:57:13.229Z,1009.12
2016-06-05T01:58:13.231Z,1009.1
2016-06-05T01:59:13.250Z,1009.12
2016-06-05T02:00:13.254Z,1009.1
2016-06-05T02:01:13.256Z,1009.09
2016-06-05T02:02:13.259Z,1009.11
2016-06-05T02:03:13.262Z,1009.11
2016-06-05T02:04:13.264Z,1009.16
2016-06-05T02:05:13.282Z,1009.16
2016-06-05T02:06:13.284Z,1009.15
2016-06-05T02:07:13.287Z,1009.17
2016-06-05T02:08:13.290Z,1009.13
2016-06-05T02:09:13.308Z,1009.14
2016-06-05T02:10:13.311Z,1009.17
2016-06-05T02:11:13.314Z,1009.14
2016-06-05T02:12:13.317Z,1009.11
2016-06-05T02:13:13.335Z,1009.12
2016-06-05T02:14:13.338Z,1009.14
2016-06-05T02:15:13.340Z,1009.16
2016-06-05T02:16:13.343Z,1009.12
2016-06-05T02:17:13.361Z,1009.17
2016-06-05T02:18:13.363Z,1009.16
2016-06-05T02:19:13.398Z,1009.14
2016-06-05T02:20:13.385Z,1009.19
2016-06-05T02:21:13.372Z,1009.1
2016-06-05T02:22:13.390Z,1009.11
2016-06-05T02:23:13.393Z,1009.13
2016-06-05T02:24:13.395Z,1009.12
2016-06-05T02:25:13.414Z,1009.1
2016-06-05T02:26:13.418Z,1009.09
2016-06-05T02:27:13.420Z,1009.12
2016-06-05T02:28:13.640Z,1009.17
2016-06-05T02:29:13.440Z,1009.15
2016-06-05T02:30:13.443Z,1009.16
2016-06-05T02:31:13.446Z,1009.12
2016-06-05T02:32:13.448Z,1009.12
2016-06-05T02:33:13.451Z,1009.14
2016-06-05T02:34:13.470Z,1009.11
2016-06-05T02:35:13.472Z,1009.08
2016-06-05T02:36:13.475Z,1009.1
2016-06-05T02:37:13.478Z,1009.12
2016-06-05T02:38:13.496Z,1009.09
2016-06-05T02:39:13.498Z,1009.11
2016-06-05T02:40:13.500Z,1009.07
2016-06-05T02:41:13.504Z,1009.08
2016-06-05T02:42:13.506Z,1009.07
2016-06-05T02:43:13.977Z,1009.05
2016-06-05T02:44:13.528Z,1009.13
2016-06-05T02:45:13.530Z,1009.15
2016-06-05T02:46:13.549Z,1009.1
2016-06-05T02:47:13.552Z,1009.11
2016-06-05T02:48:13.555Z,1009.12
2016-06-05T02:49:13.557Z,1009.13
2016-06-05T02:50:13.560Z,1009.11
2016-06-05T02:51:13.563Z,1009.12
2016-06-05T02:52:13.581Z,1009.14
2016-06-05T02:53:13.583Z,1009.15
2016-06-05T02:54:13.585Z,1009.13
2016-06-05T02:55:13.605Z,1009.15
2016-06-05T02:56:13.607Z,1009.15
2016-06-05T02:57:13.609Z,1009.14
2016-06-05T02:58:13.613Z,1009.17
2016-06-05T02:59:13.615Z,1009.19
2016-06-05T03:00:13.633Z,1009.14
2016-06-05T03:01:13.636Z,1009.17
2016-06-05T03:02:13.639Z,1009.19
2016-06-05T03:03:13.642Z,1009.15
2016-06-05T03:04:13.659Z,1009.17
2016-06-05T03:05:13.662Z,1009.12
2016-06-05T03:06:13.664Z,1009.16
2016-06-05T03:07:13.683Z,1009.18
2016-06-05T03:08:13.686Z,1009.2
2016-06-05T03:09:13.688Z,1009.23
2016-06-05T03:10:13.692Z,1009.24
2016-06-05T03:11:13.695Z,1009.26
2016-06-05T03:12:13.712Z,1009.27
2016-06-05T03:13:14.153Z,1009.25
2016-06-05T03:14:13.717Z,1009.25
2016-06-05T03:15:13.720Z,1009.28
2016-06-05T03:16:13.786Z,1009.27
2016-06-05T03:17:13.741Z,1009.28
2016-06-05T03:18:13.744Z,1009.29
2016-06-05T03:19:13.746Z,1009.3
2016-06-05T03:20:13.749Z,1009.32
2016-06-05T03:21:13.768Z,1009.3
2016-06-05T03:22:13.770Z,1009.34
2016-06-05T03:23:13.773Z,1009.29
2016-06-05T03:24:13.791Z,1009.31
2016-06-05T03:25:13.794Z,1009.29
2016-06-05T03:26:13.797Z,1009.32
2016-06-05T03:27:13.799Z,1009.28
2016-06-05T03:28:13.818Z,1009.3
2016-06-05T03:29:13.821Z,1009.26
2016-06-05T03:30:13.823Z,1009.29
2016-06-05T03:31:13.826Z,1009.31
2016-06-05T03:32:13.829Z,1009.29
2016-06-05T03:33:13.847Z,1009.29
2016-06-05T03:34:13.850Z,1009.28
2016-06-05T03:35:13.853Z,1009.31
2016-06-05T03:36:13.856Z,1009.3
2016-06-05T03:37:13.873Z,1009.29
2016-06-05T03:38:13.876Z,1009.32
2016-06-05T03:39:13.879Z,1009.29
2016-06-05T03:40:13.881Z,1009.3
2016-06-05T03:41:13.900Z,1009.31
2016-06-05T03:42:13.902Z,1009.32
2016-06-05T03:43:14.031Z,1009.33
2016-06-05T03:44:13.908Z,1009.34
2016-06-05T03:45:13.925Z,1009.31
2016-06-05T03:46:13.928Z,1009.35
2016-06-05T03:47:13.931Z,1009.35
2016-06-05T03:48:13.934Z,1009.39
2016-06-05T03:49:13.953Z,1009.41
2016-06-05T03:50:13.955Z,1009.41
2016-06-05T03:51:13.958Z,1009.4
2016-06-05T03:52:13.961Z,1009.4
2016-06-05T03:53:13.963Z,1009.44
2016-06-05T03:54:13.982Z,1009.44
2016-06-05T03:55:13.985Z,1009.49
2016-06-05T03:56:13.987Z,1009.51
2016-06-05T03:57:14.005Z,1009.53
2016-06-05T03:58:14.007Z,1009.53
2016-06-05T03:59:14.010Z,1009.52
2016-06-05T04:00:14.013Z,1009.52
2016-06-05T04:01:14.016Z,1009.51
2016-06-05T04:02:14.035Z,1009.5
2016-06-05T04:03:14.037Z,1009.49
2016-06-05T04:04:14.040Z,1009.49
2016-06-05T04:05:14.043Z,1009.47
2016-06-05T04:06:14.061Z,1009.48
2016-06-05T04:07:14.064Z,1009.48
2016-06-05T04:08:14.066Z,1009.5
2016-06-05T04:09:14.069Z,1009.47
2016-06-05T04:10:14.087Z,1009.49
2016-06-05T04:11:14.090Z,1009.53
2016-06-05T04:12:14.092Z,1009.53
2016-06-05T04:13:14.111Z,1009.55
2016-06-05T04:14:14.114Z,1009.56
2016-06-05T04:15:14.117Z,1009.54
2016-06-05T04:16:14.119Z,1009.57
2016-06-05T04:17:14.129Z,1009.57
2016-06-05T04:18:14.174Z,1009.56
2016-06-05T04:19:14.204Z,1009.56
2016-06-05T04:20:14.235Z,1009.58
2016-06-05T04:21:14.265Z,1009.62
2016-06-05T04:22:14.307Z,1009.61
2016-06-05T04:23:14.319Z,1009.65
2016-06-05T04:24:14.332Z,1009.65
2016-06-05T04:25:14.345Z,1009.64
2016-06-05T04:26:14.358Z,1009.63
2016-06-05T04:27:14.385Z,1009.65
2016-06-05T04:28:14.392Z,1009.7
2016-06-05T04:29:14.398Z,1009.68
2016-06-05T04:30:14.405Z,1009.72
2016-06-05T04:31:14.426Z,1009.72
2016-06-05T04:32:14.432Z,1009.69
2016-06-05T04:33:14.435Z,1009.74
2016-06-05T04:34:14.440Z,1009.71
2016-06-05T04:35:14.459Z,1009.77
2016-06-05T04:36:14.463Z,1009.77
2016-06-05T04:37:14.466Z,1009.8
2016-06-05T04:38:14.470Z,1009.76
2016-06-05T04:39:14.488Z,1009.83
2016-06-05T04:40:14.492Z,1009.79
2016-06-05T04:41:14.495Z,1009.82
2016-06-05T04:42:14.498Z,1009.86
2016-06-05T04:43:14.533Z,1009.85
2016-06-05T04:44:14.520Z,1009.84
2016-06-05T04:45:14.522Z,1009.87
2016-06-05T04:46:14.526Z,1009.87
2016-06-05T04:47:14.544Z,1009.87
2016-06-05T04:48:14.547Z,1009.93
2016-06-05T04:49:14.550Z,1010.01
2016-06-05T04:50:14.567Z,1009.99
2016-06-05T04:51:14.570Z,1010.01
2016-06-05T04:52:14.573Z,1010.09
2016-06-05T04:53:14.608Z,1010.1
2016-06-05T04:54:14.578Z,1010.16
2016-06-05T04:55:14.597Z,1010.19
2016-06-05T04:56:14.599Z,1010.24
2016-06-05T04:57:14.603Z,1010.25
2016-06-05T04:58:15.324Z,1010.31
2016-06-05T04:59:14.624Z,1010.3
2016-06-05T05:00:14.626Z,1010.32
2016-06-05T05:01:14.629Z,1010.36
2016-06-05T05:02:14.647Z,1010.38
2016-06-05T05:03:14.649Z,1010.4
2016-06-05T05:04:14.652Z,1010.39
2016-06-05T05:05:14.671Z,1010.45
2016-06-05T05:06:14.674Z,1010.46
2016-06-05T05:07:14.676Z,1010.5
2016-06-05T05:08:14.695Z,1010.46
2016-06-05T05:09:14.698Z,1010.49
2016-06-05T05:10:14.701Z,1010.49
2016-06-05T05:11:14.703Z,1010.5
2016-06-05T05:12:14.720Z,1010.54
2016-06-05T05:13:14.927Z,1010.54
2016-06-05T05:14:14.726Z,1010.52
2016-06-05T05:15:14.745Z,1010.54
2016-06-05T05:16:14.747Z,1010.54
2016-06-05T05:17:14.906Z,1010.6
2016-06-05T05:18:14.768Z,1010.6
2016-06-05T05:19:14.817Z,1010.63
2016-06-05T05:20:14.773Z,1010.63
2016-06-05T05:21:14.792Z,1010.65
2016-06-05T05:22:14.795Z,1010.67
2016-06-05T05:23:14.798Z,1010.73
2016-06-05T05:24:14.816Z,1010.72
2016-06-05T05:25:14.819Z,1010.75
2016-06-05T05:26:14.837Z,1010.74
2016-06-05T05:27:14.839Z,1010.8
2016-06-05T05:28:14.842Z,1010.78
2016-06-05T05:29:14.844Z,1010.84
2016-06-05T05:30:14.863Z,1010.86
2016-06-05T05:31:14.866Z,1010.89
2016-06-05T05:32:14.885Z,1010.88
2016-06-05T05:33:14.887Z,1010.9
2016-06-05T05:34:14.905Z,1010.89
2016-06-05T05:35:14.907Z,1010.93
2016-06-05T05:36:14.910Z,1010.96
2016-06-05T05:37:14.929Z,1010.95
2016-06-05T05:38:14.932Z,1011.01
2016-06-05T05:39:14.934Z,1011.04
2016-06-05T05:40:14.952Z,1011.09
2016-06-05T05:41:14.955Z,1011.1
2016-06-05T05:42:14.974Z,1011.18
2016-06-05T05:43:14.976Z,1011.19
2016-06-05T05:44:14.978Z,1011.21
2016-06-05T05:45:14.998Z,1011.26
2016-06-05T05:46:15.000Z,1011.31
2016-06-05T05:47:15.003Z,1011.28
2016-06-05T05:48:15.020Z,1011.28
2016-06-05T05:49:15.023Z,1011.26
2016-06-05T05:50:15.042Z,1011.39
2016-06-05T05:51:15.045Z,1011.42
2016-06-05T05:52:15.047Z,1011.44
2016-06-05T05:53:15.066Z,1011.5
2016-06-05T05:54:15.069Z,1011.46
2016-06-05T05:55:15.086Z,1011.46
2016-06-05T05:56:15.089Z,1011.45
2016-06-05T05:57:15.092Z,1011.43
2016-06-05T05:58:15.111Z,1011.4
2016-06-05T05:59:15.128Z,1011.41
2016-06-05T06:00:15.131Z,1011.38
2016-06-05T06:01:15.134Z,1011.46
2016-06-05T06:02:15.152Z,1011.42
2016-06-05T06:03:15.155Z,1011.39
2016-06-05T06:04:15.158Z,1011.41
2016-06-05T06:05:15.176Z,1011.38
2016-06-05T06:06:15.179Z,1011.41
2016-06-05T06:07:15.196Z,1011.49
2016-06-05T06:08:15.199Z,1011.5
2016-06-05T06:09:15.218Z,1011.47
2016-06-05T06:10:15.220Z,1011.57
2016-06-05T06:11:15.239Z,1011.55
2016-06-05T06:12:15.242Z,1011.57
2016-06-05T06:13:15.260Z,1011.55
2016-06-05T06:14:15.262Z,1011.56
2016-06-05T06:15:15.265Z,1011.53
2016-06-05T06:16:15.284Z,1011.48
2016-06-05T06:17:15.333Z,1011.45
2016-06-05T06:18:15.304Z,1011.42
2016-06-05T06:19:15.354Z,1011.37
2016-06-05T06:20:15.326Z,1011.34
2016-06-05T06:21:15.328Z,1011.28
2016-06-05T06:22:15.347Z,1011.27
2016-06-05T06:23:15.349Z,1011.25
2016-06-05T06:24:15.353Z,1011.28
2016-06-05T06:25:15.370Z,1011.29
2016-06-05T06:26:15.372Z,1011.3
2016-06-05T06:27:15.391Z,1011.31
2016-06-05T06:28:15.456Z,1011.31
2016-06-05T06:29:15.412Z,1011.33
2016-06-05T06:30:15.415Z,1011.32
2016-06-05T06:31:15.433Z,1011.31
2016-06-05T06:32:15.436Z,1011.27
2016-06-05T06:33:15.454Z,1011.32
2016-06-05T06:34:15.457Z,1011.33
2016-06-05T06:35:15.475Z,1011.32
2016-06-05T06:36:15.477Z,1011.3
2016-06-05T06:37:15.496Z,1011.26
2016-06-05T06:38:15.499Z,1011.26
2016-06-05T06:39:15.518Z,1011.29
2016-06-05T06:40:15.520Z,1011.31
2016-06-05T06:41:15.538Z,1011.3
2016-06-05T06:42:15.541Z,1011.31
2016-06-05T06:43:15.559Z,1011.33
2016-06-05T06:44:15.562Z,1011.34
2016-06-05T06:45:15.581Z,1011.32
2016-06-05T06:46:15.583Z,1011.29
2016-06-05T06:47:15.602Z,1011.3
2016-06-05T06:48:15.604Z,1011.32
2016-06-05T06:49:15.622Z,1011.31
2016-06-05T06:50:15.625Z,1011.29
2016-06-05T06:51:15.643Z,1011.32
2016-06-05T06:52:15.646Z,1011.33
2016-06-05T06:53:15.664Z,1011.36
2016-06-05T06:54:15.667Z,1011.38
2016-06-05T06:55:15.685Z,1011.33
2016-06-05T06:56:15.688Z,1011.35
2016-06-05T06:57:15.706Z,1011.35
2016-06-05T06:58:15.709Z,1011.37
2016-06-05T06:59:15.727Z,1011.34
2016-06-05T07:00:15.730Z,1011.37
2016-06-05T07:01:15.749Z,1011.39
2016-06-05T07:02:15.751Z,1011.38
2016-06-05T07:03:15.769Z,1011.38
2016-06-05T07:04:15.788Z,1011.43
2016-06-05T07:05:15.791Z,1011.43
2016-06-05T07:06:15.809Z,1011.38
2016-06-05T07:07:15.811Z,1011.42
2016-06-05T07:08:15.830Z,1011.42
2016-06-05T07:09:15.849Z,1011.44
2016-06-05T07:10:15.851Z,1011.43
2016-06-05T07:11:15.853Z,1011.42
2016-06-05T07:12:15.871Z,1011.41
2016-06-05T07:13:15.875Z,1011.4
2016-06-05T07:14:15.893Z,1011.39
2016-06-05T07:15:15.912Z,1011.43
2016-06-05T07:16:15.914Z,1011.43
2016-06-05T07:17:15.931Z,1011.47
2016-06-05T07:18:15.935Z,1011.46
2016-06-05T07:19:15.954Z,1011.42
2016-06-05T07:20:15.956Z,1011.47
2016-06-05T07:21:15.973Z,1011.51
2016-06-05T07:22:15.976Z,1011.48
2016-06-05T07:23:15.995Z,1011.45
2016-06-05T07:24:15.998Z,1011.45
2016-06-05T07:25:16.016Z,1011.39
2016-06-05T07:26:16.019Z,1011.41
2016-06-05T07:27:16.037Z,1011.45
2016-06-05T07:28:16.056Z,1011.51
2016-06-05T07:29:16.058Z,1011.5
2016-06-05T07:30:16.077Z,1011.48
2016-06-05T07:31:16.080Z,1011.46
2016-06-05T07:32:16.097Z,1011.45
2016-06-05T07:33:16.100Z,1011.49
2016-06-05T07:34:16.119Z,1011.5
2016-06-05T07:35:16.136Z,1011.5
2016-06-05T07:36:16.139Z,1011.5
2016-06-05T07:37:16.157Z,1011.5
2016-06-05T07:38:16.161Z,1011.5
2016-06-05T07:39:16.179Z,1011.47
2016-06-05T07:40:16.182Z,1011.45
2016-06-05T07:41:16.199Z,1011.41
2016-06-05T07:42:16.202Z,1011.24
2016-06-05T07:43:16.643Z,1011.07
2016-06-05T07:44:16.239Z,1010.92
2016-06-05T07:45:16.242Z,1010.9
2016-06-05T07:46:16.245Z,1010.88
2016-06-05T07:47:16.248Z,1010.89
2016-06-05T07:48:16.265Z,1010.94
2016-06-05T07:49:16.268Z,1010.86
2016-06-05T07:50:16.287Z,1010.85
2016-06-05T07:51:16.289Z,1010.85
2016-06-05T07:52:16.307Z,1010.88
2016-06-05T07:53:16.326Z,1010.86
2016-06-05T07:54:16.312Z,1010.83
2016-06-05T07:55:16.331Z,1010.85
2016-06-05T07:56:16.334Z,1010.9
2016-06-05T07:57:16.352Z,1010.94
2016-06-05T07:58:16.371Z,1010.9
2016-06-05T07:59:16.373Z,1010.91
2016-06-05T08:00:16.375Z,1010.93
2016-06-05T08:01:16.379Z,1010.92
2016-06-05T08:02:16.397Z,1010.93
2016-06-05T08:03:16.399Z,1010.92
2016-06-05T08:04:16.418Z,1010.94
2016-06-05T08:05:16.421Z,1010.93
2016-06-05T08:06:16.424Z,1010.9
2016-06-05T08:07:16.441Z,1010.93
2016-06-05T08:08:16.444Z,1010.91
2016-06-05T08:09:16.447Z,1010.96
2016-06-05T08:10:16.465Z,1010.97
2016-06-05T08:11:16.468Z,1010.94
2016-06-05T08:12:16.486Z,1010.93
2016-06-05T08:13:16.489Z,1010.95
2016-06-05T08:14:16.507Z,1010.97
2016-06-05T08:15:16.509Z,1010.96
2016-06-05T08:16:16.512Z,1010.97
2016-06-05T08:17:16.531Z,1011
2016-06-05T08:18:16.534Z,1010.97
2016-06-05T08:19:16.536Z,1010.99
2016-06-05T08:20:16.554Z,1010.95
2016-06-05T08:21:16.557Z,1011.02
2016-06-05T08:22:16.559Z,1010.98
2016-06-05T08:23:16.579Z,1010.99
2016-06-05T08:24:16.581Z,1010.97
2016-06-05T08:25:16.600Z,1010.99
2016-06-05T08:26:16.602Z,1011
2016-06-05T08:27:16.605Z,1010.98
2016-06-05T08:28:16.623Z,1010.97
2016-06-05T08:29:16.626Z,1010.97
2016-06-05T08:30:16.628Z,1010.97
2016-06-05T08:31:16.647Z,1010.98
2016-06-05T08:32:16.650Z,1010.98
2016-06-05T08:33:16.653Z,1010.99
2016-06-05T08:34:16.670Z,1011.02
2016-06-05T08:35:16.673Z,1011
2016-06-05T08:36:16.691Z,1011
2016-06-05T08:37:16.694Z,1010.99
2016-06-05T08:38:16.696Z,1011
2016-06-05T08:39:16.715Z,1011
2016-06-05T08:40:16.718Z,1011.01
2016-06-05T08:41:16.721Z,1011.02
2016-06-05T08:42:16.739Z,1010.98
2016-06-05T08:43:16.741Z,1011.01
2016-06-05T08:44:16.760Z,1011.02
2016-06-05T08:45:16.763Z,1011.02
2016-06-05T08:46:16.765Z,1011.04
2016-06-05T08:47:16.784Z,1011
2016-06-05T08:48:16.787Z,1011.02
2016-06-05T08:49:16.789Z,1011.03
2016-06-05T08:50:16.807Z,1011.03
2016-06-05T08:51:16.810Z,1011.06
2016-06-05T08:52:16.812Z,1011.06
2016-06-05T08:53:16.831Z,1011.1
2016-06-05T08:54:16.833Z,1011.07
2016-06-05T08:55:16.851Z,1011.1
2016-06-05T08:56:16.854Z,1011.09
2016-06-05T08:57:16.857Z,1011.12
2016-06-05T08:58:16.875Z,1011.14
2016-06-05T08:59:16.878Z,1011.13
2016-06-05T09:00:16.881Z,1011.12
2016-06-05T09:01:16.900Z,1011.13
2016-06-05T09:02:16.902Z,1011.16
2016-06-05T09:03:16.905Z,1011.16
2016-06-05T09:04:16.923Z,1011.14
2016-06-05T09:05:16.926Z,1011.11
2016-06-05T09:06:16.928Z,1011.15
2016-06-05T09:07:16.947Z,1011.18
2016-06-05T09:08:16.950Z,1011.11
2016-06-05T09:09:16.968Z,1011.15
2016-06-05T09:10:16.971Z,1011.14
2016-06-05T09:11:16.973Z,1011.15
2016-06-05T09:12:16.976Z,1011.14
2016-06-05T09:13:16.994Z,1011.17
2016-06-05T09:14:16.996Z,1011.19
2016-06-05T09:15:17.015Z,1011.19
2016-06-05T09:16:17.018Z,1011.15
2016-06-05T09:17:17.021Z,1011.17
2016-06-05T09:18:17.038Z,1011.18
2016-06-05T09:19:17.041Z,1011.17
2016-06-05T09:20:17.091Z,1011.18
2016-06-05T09:21:17.063Z,1011.15
2016-06-05T09:22:17.065Z,1011.14
2016-06-05T09:23:17.067Z,1011.15
2016-06-05T09:24:17.086Z,1011.14
2016-06-05T09:25:17.090Z,1011.17
2016-06-05T09:26:17.092Z,1011.18
2016-06-05T09:27:17.109Z,1011.19
2016-06-05T09:28:17.112Z,1011.21
2016-06-05T09:29:17.115Z,1011.23
2016-06-05T09:30:17.134Z,1011.21
2016-06-05T09:31:17.136Z,1011.21
2016-06-05T09:32:17.155Z,1011.22
2016-06-05T09:33:17.158Z,1011.18
2016-06-05T09:34:17.161Z,1011.21
2016-06-05T09:35:17.178Z,1011.23
2016-06-05T09:36:17.180Z,1011.24
2016-06-05T09:37:17.183Z,1011.23
2016-06-05T09:38:17.202Z,1011.27
2016-06-05T09:39:17.205Z,1011.28
2016-06-05T09:40:17.207Z,1011.31
2016-06-05T09:41:17.226Z,1011.27
2016-06-05T09:42:17.228Z,1011.25
2016-06-05T09:43:17.230Z,1011.28
2016-06-05T09:44:17.249Z,1011.29
2016-06-05T09:45:17.252Z,1011.25
2016-06-05T09:46:17.255Z,1011.28
2016-06-05T09:47:17.273Z,1011.28
2016-06-05T09:48:17.276Z,1011.3
2016-06-05T09:49:17.294Z,1011.32
2016-06-05T09:50:17.297Z,1011.24
2016-06-05T09:51:17.299Z,1011.27
2016-06-05T09:52:17.318Z,1011.29
2016-06-05T09:53:17.320Z,1011.28
2016-06-05T09:54:17.323Z,1011.27
2016-06-05T09:55:17.342Z,1011.32
2016-06-05T09:56:17.345Z,1011.29
2016-06-05T09:57:17.347Z,1011.26
2016-06-05T09:58:17.365Z,1011.29
2016-06-05T09:59:17.368Z,1011.31
2016-06-05T10:00:17.371Z,1011.32
2016-06-05T10:01:17.389Z,1011.28
2016-06-05T10:02:17.392Z,1011.28
2016-06-05T10:03:17.394Z,1011.3
2016-06-05T10:04:17.412Z,1011.28
2016-06-05T10:05:17.414Z,1011.3
2016-06-05T10:06:17.418Z,1011.31
2016-06-05T10:07:17.436Z,1011.35
2016-06-05T10:08:17.439Z,1011.36
2016-06-05T10:09:17.457Z,1011.32
2016-06-05T10:10:17.460Z,1011.34
2016-06-05T10:11:17.463Z,1011.32
2016-06-05T10:12:17.481Z,1011.33
2016-06-05T10:13:17.483Z,1011.31
2016-06-05T10:14:17.485Z,1011.39
2016-06-05T10:15:17.504Z,1011.33
2016-06-05T10:16:17.507Z,1011.34
2016-06-05T10:17:17.510Z,1011.32
2016-06-05T10:18:17.528Z,1011.33
2016-06-05T10:19:17.531Z,1011.36
2016-06-05T10:20:17.534Z,1011.37
2016-06-05T10:21:17.551Z,1011.35
2016-06-05T10:22:17.554Z,1011.35
2016-06-05T10:23:17.557Z,1011.33
2016-06-05T10:24:17.576Z,1011.33
2016-06-05T10:25:17.579Z,1011.29
2016-06-05T10:26:17.581Z,1011.29
2016-06-05T10:27:17.598Z,1011.28
2016-06-05T10:28:17.602Z,1011.25
2016-06-05T10:29:17.605Z,1011.28
2016-06-05T10:30:17.623Z,1011.26
2016-06-05T10:31:17.625Z,1011.31
2016-06-05T10:32:17.628Z,1011.3
2016-06-05T10:33:17.647Z,1011.28
2016-06-05T10:34:17.650Z,1011.29
2016-06-05T10:35:17.667Z,1011.24
2016-06-05T10:36:17.670Z,1011.29
2016-06-05T10:37:17.673Z,1011.24
2016-06-05T10:38:17.691Z,1011.28
2016-06-05T10:39:17.694Z,1011.24
2016-06-05T10:40:17.697Z,1011.21
2016-06-05T10:41:17.715Z,1011.25
2016-06-05T10:42:17.718Z,1011.19
2016-06-05T10:43:17.721Z,1011.23
2016-06-05T10:44:17.738Z,1011.21
2016-06-05T10:45:17.742Z,1011.2
2016-06-05T10:46:17.744Z,1011.19
2016-06-05T10:47:17.762Z,1011.2
2016-06-05T10:48:17.780Z,1011.16
2016-06-05T10:49:17.768Z,1011.17
2016-06-05T10:50:17.786Z,1011.2
2016-06-05T10:51:17.788Z,1011.2
2016-06-05T10:52:17.791Z,1011.23
2016-06-05T10:53:17.809Z,1011.17
2016-06-05T10:54:17.813Z,1011.18
2016-06-05T10:55:17.815Z,1011.15
2016-06-05T10:56:17.834Z,1011.18
2016-06-05T10:57:17.836Z,1011.13
2016-06-05T10:58:17.839Z,1011.18
2016-06-05T10:59:17.857Z,1011.2
2016-06-05T11:00:17.859Z,1011.22
2016-06-05T11:01:17.878Z,1011.21
2016-06-05T11:02:17.881Z,1011.2
2016-06-05T11:03:17.884Z,1011.14
2016-06-05T11:04:17.887Z,1011.15
2016-06-05T11:05:17.905Z,1011.16
2016-06-05T11:06:17.907Z,1011.18
2016-06-05T11:07:17.925Z,1011.14
2016-06-05T11:08:17.928Z,1011.11
2016-06-05T11:09:17.947Z,1011.11
2016-06-05T11:10:17.965Z,1011.13
2016-06-05T11:11:17.952Z,1011.07
2016-06-05T11:12:17.955Z,1011
2016-06-05T11:13:17.973Z,1011.06
2016-06-05T11:14:17.992Z,1011.05
2016-06-05T11:15:17.977Z,1011.09
2016-06-05T11:16:17.996Z,1011.08
2016-06-05T11:17:17.999Z,1011.09
2016-06-05T11:18:18.002Z,1011.1
2016-06-05T11:19:18.021Z,1011.1
2016-06-05T11:20:18.023Z,1011.09
2016-06-05T11:21:18.026Z,1011.07
2016-06-05T11:22:18.028Z,1011.04
2016-06-05T11:23:18.046Z,1011.07
2016-06-05T11:24:18.065Z,1011.01
2016-06-05T11:25:18.068Z,1011.01
2016-06-05T11:26:18.071Z,1010.93
2016-06-05T11:27:18.074Z,1010.96
2016-06-05T11:28:18.451Z,1010.99
2016-06-05T11:29:18.095Z,1010.99
2016-06-05T11:30:18.097Z,1010.96
2016-06-05T11:31:18.115Z,1010.97
2016-06-05T11:32:18.118Z,1010.92
2016-06-05T11:33:18.120Z,1010.96
2016-06-05T11:34:18.123Z,1010.94
2016-06-05T11:35:18.142Z,1010.93
2016-06-05T11:36:18.144Z,1010.95
2016-06-05T11:37:18.147Z,1010.91
2016-06-05T11:38:18.165Z,1010.92
2016-06-05T11:39:18.184Z,1010.9
2016-06-05T11:40:18.186Z,1010.87
2016-06-05T11:41:18.189Z,1010.84
2016-06-05T11:42:18.191Z,1010.88
2016-06-05T11:43:18.194Z,1010.87
2016-06-05T11:44:18.213Z,1010.89
2016-06-05T11:45:18.216Z,1010.9
2016-06-05T11:46:18.233Z,1010.91
2016-06-05T11:47:18.236Z,1010.9
2016-06-05T11:48:18.239Z,1010.91
2016-06-05T11:49:18.241Z,1010.88
2016-06-05T11:50:18.260Z,1010.85
2016-06-05T11:51:18.262Z,1010.86
2016-06-05T11:52:18.265Z,1010.83
2016-06-05T11:53:18.285Z,1010.81
2016-06-05T11:54:18.287Z,1010.82
2016-06-05T11:55:18.304Z,1010.8
2016-06-05T11:56:18.307Z,1010.82
2016-06-05T11:57:18.310Z,1010.8
2016-06-05T11:58:18.922Z,1010.82
2016-06-05T11:59:18.331Z,1010.76
2016-06-05T12:00:18.334Z,1010.77
2016-06-05T12:01:18.351Z,1010.78
2016-06-05T12:02:18.354Z,1010.72
2016-06-05T12:03:18.373Z,1010.7
2016-06-05T12:04:18.375Z,1010.72
2016-06-05T12:05:18.379Z,1010.69
2016-06-05T12:06:18.382Z,1010.69
2016-06-05T12:07:18.399Z,1010.69
2016-06-05T12:08:18.403Z,1010.67
2016-06-05T12:09:18.406Z,1010.71